DW7000 Weather Reports


Display with metric or nautical units.
time (UTC)temp
F
wind
direction
speed
MPH
gust
MPH
rain 1hr
in
rain 24hr
in
rain mn
in
humidity
%
barometer
mb
20190318133028 39 290 8.0 16.0 0.00 0.00 0.00 59 1021.0
20190318131514 39 286 7.0 18.0 0.00 0.00 0.00 60 1020.9
20190318130010 38 321 5.0 15.0 0.00 0.00 0.00 60 1020.8
20190318124503 38 264 1.0 8.0 0.00 0.00 0.00 59 1020.6
20190318123145 38 330 6.0 18.0 0.00 0.00 0.00 58 1020.4
20190318121701 39 300 5.0 14.0 0.00 0.00 0.00 57 1020.2
20190318120142 39 27 6.0 15.0 0.00 0.00 0.00 57 1020.0
20190318114836 39 314 5.0 19.0 0.00 0.00 0.00 56 1019.8
20190318113137 39 298 5.0 15.0 0.00 0.00 0.00 56 1019.8
20190318111644 39 39 5.0 13.0 0.00 0.00 0.00 55 1019.9
20190318110238 40 304 6.0 16.0 0.00 0.00 0.00 54 1019.8
20190318104644 40 359 5.0 15.0 0.00 0.00 0.00 52 1019.7
20190318103141 40 314 5.0 16.0 0.00 0.00 0.00 53 1019.5
20190318101623 41 305 4.0 14.0 0.00 0.00 0.00 52 1019.5
20190318100215 41 353 5.0 14.0 0.00 0.00 0.00 52 1019.4
20190318094645 42 298 3.0 11.0 0.00 0.00 0.00 50 1019.5
20190318093113 42 328 2.0 13.0 0.00 0.00 0.00 49 1019.4
20190318091610 43 343 5.0 11.0 0.00 0.00 0.00 47 1019.4
20190318090100 43 272 4.0 7.0 0.00 0.00 0.00 47 1019.5
20190318084628 43 315 3.0 8.0 0.00 0.00 0.00 47 1019.5
20190318083121 43 314 1.0 6.0 0.00 0.00 0.00 47 1019.7
20190318081600 44 12 5.0 11.0 0.00 0.00 0.00 45 1019.7
20190318080031 44 300 7.0 15.0 0.00 0.00 0.00 44 1019.7
20190318074527 44 339 7.0 12.0 0.00 0.00 0.00 44 1019.6
20190318073041 45 307 8.0 16.0 0.00 0.00 0.00 43 1019.8
20190318071523 45 307 9.0 19.0 0.00 0.00 0.00 42 1019.8
20190318070022 46 328 10.0 18.0 0.00 0.00 0.00 42 1019.9
20190318064532 46 300 8.0 15.0 0.00 0.00 0.00 41 1019.9
20190318063004 46 290 7.0 15.0 0.00 0.00 0.00 40 1019.9
20190318061505 46 325 4.0 10.0 0.00 0.00 0.00 40 1020.0
20190318060156 46 337 2.0 6.0 0.00 0.00 0.00 40 1020.0
20190318054653 46 267 2.0 5.0 0.00 0.00 0.00 39 1020.1
20190318053235 46 257 0.0 1.0 0.00 0.00 0.00 39 1020.1
20190318051613 46 339 0.0 3.0 0.00 0.00 0.00 38 1020.1
20190318050251 46 291 0.0 3.0 0.00 0.00 0.00 38 1020.3
20190318044637 47 308 1.0 3.0 0.00 0.00 0.00 38 1020.4
20190318043123 47 307 4.0 7.0 0.00 0.00 0.00 38 1020.4
20190318041622 47 252 2.0 7.0 0.00 0.00 0.00 38 1020.5
20190318040111 47 304 3.0 7.0 0.00 0.00 0.00 38 1020.4
20190318034607 47 319 4.0 9.0 0.00 0.00 0.00 38 1020.4
20190318033107 47 315 5.0 11.0 0.00 0.00 0.00 39 1020.3
20190318031622 47 321 4.0 9.0 0.00 0.00 0.00 39 1020.3
20190318030058 47 296 5.0 11.0 0.00 0.00 0.00 38 1020.4
20190318024631 47 298 5.0 11.0 0.00 0.00 0.00 40 1020.5
20190318023138 48 6 7.0 14.0 0.00 0.00 0.00 38 1020.4
20190318021616 48 326 6.0 13.0 0.00 0.00 0.00 38 1020.3
20190318020110 48 314 8.0 17.0 0.00 0.00 0.00 37 1020.4
20190318014559 48 319 6.0 12.0 0.00 0.00 0.00 38 1020.3
20190318013111 48 294 6.0 11.0 0.00 0.00 0.00 36 1020.3
20190318011602 49 311 4.0 10.0 0.00 0.00 0.00 38 1020.4
20190318010051 49 295 3.0 8.0 0.00 0.00 0.00 36 1020.0
20190318004638 50 9 2.0 5.0 0.00 0.00 0.00 39 1019.9
20190318003103 50 255 0.0 2.0 0.00 0.00 0.00 39 1019.8
20190318001615 51 249 1.0 4.0 0.00 0.00 0.00 38 1019.7
20190318000121 51 183 0.0 2.0 0.00 0.00 0.00 38 1019.6
20190317234553 52 148 1.0 5.0 0.00 0.00 0.00 37 1019.4
20190317233056 55 212 2.0 3.0 0.00 0.00 0.00 33 1019.1
20190317231537 55 194 1.0 4.0 0.00 0.00 0.00 32 1019.1
20190317230042 56 211 3.0 12.0 0.00 0.00 0.00 31 1019.0
20190317224611 56 210 1.0 7.0 0.00 0.00 0.00 31 1018.8
20190317223047 56 204 4.0 9.0 0.00 0.00 0.00 31 1018.8
20190317221612 56 139 3.0 7.0 0.00 0.00 0.00 30 1018.7
20190317220047 56 198 3.0 9.0 0.00 0.00 0.00 31 1018.7
20190317214603 57 162 6.0 12.0 0.00 0.00 0.00 30 1018.7
20190317213032 57 214 5.0 9.0 0.00 0.00 0.00 29 1018.6
20190317211533 57 155 2.0 11.0 0.00 0.00 0.00 30 1018.6
20190317210037 56 136 3.0 11.0 0.00 0.00 0.00 30 1018.7
20190317204547 56 122 3.0 11.0 0.00 0.00 0.00 30 1018.8
20190317203057 56 129 6.0 12.0 0.00 0.00 0.00 30 1018.9
20190317201539 57 208 2.0 9.0 0.00 0.00 0.00 29 1019.2
20190317200022 57 149 3.0 8.0 0.00 0.00 0.00 30 1019.4
20190317194540 56 190 7.0 12.0 0.00 0.00 0.00 29 1019.6
20190317193021 56 134 3.0 13.0 0.00 0.00 0.00 30 1019.7
20190317191507 56 167 1.0 8.0 0.00 0.00 0.00 30 1019.9
20190317190008 55 115 4.0 10.0 0.00 0.00 0.00 30 1020.3
20190317184503 55 65 7.0 14.0 0.00 0.00 0.00 30 1020.6
20190317183214 55 106 3.0 8.0 0.00 0.00 0.00 32 1021.0
20190317181647 54 316 3.0 10.0 0.00 0.00 0.00 31 1021.4
20190317180204 54 188 4.0 11.0 0.00 0.00 0.00 31 1021.8
20190317174656 54 276 2.0 10.0 0.00 0.00 0.00 31 1022.2
20190317173134 53 201 2.0 10.0 0.00 0.00 0.00 32 1022.5
20190317171744 53 190 4.0 12.0 0.00 0.00 0.00 31 1022.8
20190317170209 52 174 2.0 11.0 0.00 0.00 0.00 32 1023.2
20190317164608 51 203 3.0 7.0 0.00 0.00 0.00 33 1023.5
20190317163130 50 181 4.0 9.0 0.00 0.00 0.00 33 1023.6
20190317161608 51 224 4.0 9.0 0.00 0.00 0.00 32 1023.8
20190317160122 50 266 2.0 5.0 0.00 0.00 0.00 32 1024.0
20190317154556 50 193 1.0 8.0 0.00 0.00 0.00 34 1024.2
20190317153147 48 345 0.0 4.0 0.00 0.00 0.00 34 1024.4
20190317151640 46 252 0.0 3.0 0.00 0.00 0.00 37 1024.4
20190317150148 45 23 2.0 8.0 0.00 0.00 0.00 37 1024.6
20190317144613 43 283 3.0 11.0 0.00 0.00 0.00 38 1024.6
20190317143101 42 289 5.0 11.0 0.00 0.00 0.00 39 1024.5
20190317141607 41 315 8.0 13.0 0.00 0.00 0.00 39 1024.3
20190317140054 40 314 7.0 15.0 0.00 0.00 0.00 40 1024.0